createdAt,value
2022-08-28T00:02:07.491Z,17.90
2022-08-28T00:04:35.087Z,17.89
2022-08-28T00:07:01.731Z,17.96
2022-08-28T00:09:27.605Z,17.77
2022-08-28T00:11:53.832Z,17.89
2022-08-28T00:14:21.203Z,17.79
2022-08-28T00:16:48.297Z,17.88
2022-08-28T00:19:15.894Z,17.84
2022-08-28T00:21:41.877Z,17.77
2022-08-28T00:24:08.293Z,17.79
2022-08-28T00:26:52.931Z,17.71
2022-08-28T00:29:18.743Z,17.62
2022-08-28T00:31:44.730Z,17.61
2022-08-28T00:34:10.695Z,17.59
2022-08-28T00:36:37.989Z,17.59
2022-08-28T00:39:05.263Z,17.70
2022-08-28T00:41:34.502Z,17.62
2022-08-28T00:44:28.663Z,17.52
2022-08-28T00:46:57.246Z,17.53
2022-08-28T00:49:27.705Z,17.64
2022-08-28T00:52:08.228Z,17.69
2022-08-28T00:54:41.706Z,17.64
2022-08-28T00:57:33.649Z,17.58
2022-08-28T00:59:59.722Z,17.59
2022-08-28T01:02:26.702Z,17.58
2022-08-28T01:04:53.988Z,17.45
2022-08-28T01:07:22.412Z,17.54
2022-08-28T01:09:52.767Z,17.57
2022-08-28T01:12:25.693Z,17.39
2022-08-28T01:14:57.760Z,17.33
2022-08-28T01:17:27.755Z,17.28
2022-08-28T01:20:00.191Z,17.46
2022-08-28T01:22:48.384Z,17.35
2022-08-28T01:25:18.455Z,17.46
2022-08-28T01:27:44.594Z,17.53
2022-08-28T01:30:14.144Z,17.34
2022-08-28T01:32:50.949Z,17.32
2022-08-28T01:35:22.057Z,17.33
2022-08-28T01:37:48.123Z,17.37
2022-08-28T01:40:19.539Z,17.52
2022-08-28T01:42:45.635Z,17.22
2022-08-28T01:45:17.693Z,17.45
2022-08-28T01:47:44.763Z,17.31
2022-08-28T01:50:14.165Z,17.20
2022-08-28T01:52:40.955Z,17.07
2022-08-28T01:55:08.010Z,17.16
2022-08-28T01:57:34.628Z,17.10
2022-08-28T02:00:00.861Z,16.86
2022-08-28T02:02:28.517Z,16.89
2022-08-28T02:04:54.309Z,16.88
2022-08-28T02:07:20.149Z,17.00
2022-08-28T02:09:46.253Z,17.05
2022-08-28T02:12:12.041Z,17.20
2022-08-28T02:14:38.126Z,17.17
2022-08-28T02:17:04.067Z,17.21
2022-08-28T02:19:31.257Z,17.21
2022-08-28T02:21:57.087Z,17.18
2022-08-28T02:24:23.031Z,17.25
2022-08-28T02:26:48.873Z,16.94
2022-08-28T02:29:14.709Z,16.91
2022-08-28T02:31:40.501Z,17.00
2022-08-28T02:34:06.405Z,16.95
2022-08-28T02:36:33.052Z,16.87
2022-08-28T02:38:58.977Z,16.90
2022-08-28T02:41:25.523Z,16.74
2022-08-28T02:43:51.599Z,16.90
2022-08-28T02:46:17.527Z,16.87
2022-08-28T02:48:44.021Z,16.95
2022-08-28T02:51:12.568Z,16.90
2022-08-28T02:53:39.938Z,16.86
2022-08-28T02:56:06.886Z,16.92
2022-08-28T02:58:33.866Z,17.07
2022-08-28T03:01:01.172Z,17.01
2022-08-28T03:03:30.393Z,16.85
2022-08-28T03:05:57.788Z,16.68
2022-08-28T03:08:27.292Z,16.80
2022-08-28T03:10:53.450Z,16.82
2022-08-28T03:13:23.123Z,16.87
2022-08-28T03:15:55.947Z,16.81
2022-08-28T03:18:23.687Z,16.92
2022-08-28T03:20:49.524Z,16.79
2022-08-28T03:23:27.533Z,16.85
2022-08-28T03:26:00.140Z,16.65
2022-08-28T03:28:29.983Z,16.75
2022-08-28T03:30:57.012Z,16.57
2022-08-28T03:33:25.537Z,16.48
2022-08-28T03:35:52.075Z,16.39
2022-08-28T03:38:18.927Z,16.42
2022-08-28T03:40:46.476Z,16.45
2022-08-28T03:43:15.012Z,16.45
2022-08-28T03:45:41.580Z,16.27
2022-08-28T03:48:07.861Z,16.17
2022-08-28T03:50:34.364Z,16.13
2022-08-28T03:53:00.189Z,16.19
2022-08-28T03:55:26.164Z,16.32
2022-08-28T03:57:52.164Z,16.31
2022-08-28T04:00:19.648Z,15.89
2022-08-28T04:02:45.598Z,16.12
2022-08-28T04:05:12.212Z,16.19
2022-08-28T04:07:38.784Z,16.17
2022-08-28T04:10:05.228Z,16.03
2022-08-28T04:12:32.847Z,15.80
2022-08-28T04:15:01.385Z,15.92
2022-08-28T04:17:27.272Z,15.88
2022-08-28T04:19:53.542Z,15.73
2022-08-28T04:22:20.233Z,15.57
2022-08-28T04:24:49.700Z,15.47
2022-08-28T04:27:15.468Z,15.39
2022-08-28T04:29:41.311Z,15.39
2022-08-28T04:32:07.248Z,15.34
2022-08-28T04:34:33.085Z,15.39
2022-08-28T04:36:58.922Z,15.36
2022-08-28T04:39:24.697Z,15.24
2022-08-28T04:41:50.544Z,15.31
2022-08-28T04:44:16.478Z,15.34
2022-08-28T04:46:42.704Z,15.36
2022-08-28T04:49:08.574Z,15.52
2022-08-28T04:51:36.840Z,15.84
2022-08-28T04:54:04.835Z,15.60
2022-08-28T04:56:30.909Z,15.51
2022-08-28T04:58:56.835Z,15.60
2022-08-28T05:01:24.401Z,15.36
2022-08-28T05:03:56.743Z,15.44
2022-08-28T05:06:26.061Z,15.36
2022-08-28T05:08:53.293Z,15.56
2022-08-28T05:11:33.417Z,15.45
2022-08-28T05:14:05.014Z,15.66
2022-08-28T05:16:32.138Z,15.66
2022-08-28T05:19:02.568Z,15.57
2022-08-28T05:21:28.397Z,15.54
2022-08-28T05:23:56.648Z,15.42
2022-08-28T05:26:22.849Z,15.76
2022-08-28T05:28:54.369Z,15.55
2022-08-28T05:31:21.863Z,15.58
2022-08-28T05:33:49.127Z,15.52
2022-08-28T05:36:16.921Z,15.54
2022-08-28T05:38:43.608Z,15.41
2022-08-28T05:41:09.409Z,15.39
2022-08-28T05:43:35.987Z,15.38
2022-08-28T05:46:06.797Z,15.54
2022-08-28T05:48:37.099Z,15.52
2022-08-28T05:51:07.756Z,15.49
2022-08-28T05:53:36.827Z,15.56
2022-08-28T05:56:04.389Z,15.59
2022-08-28T05:58:31.208Z,15.51
2022-08-28T06:01:08.998Z,15.42
2022-08-28T06:03:36.873Z,15.76
2022-08-28T06:06:03.596Z,16.09
2022-08-28T06:08:30.948Z,16.14
2022-08-28T06:10:57.757Z,16.07
2022-08-28T06:13:24.676Z,16.09
2022-08-28T06:15:50.662Z,16.12
2022-08-28T06:18:16.945Z,15.99
2022-08-28T06:20:44.932Z,15.99
2022-08-28T06:23:14.637Z,16.05
2022-08-28T06:25:48.387Z,16.13
2022-08-28T06:28:18.191Z,15.85
2022-08-28T06:31:08.946Z,15.98
2022-08-28T06:33:30.969Z,16.16
2022-08-28T06:35:56.852Z,15.74
2022-08-28T06:38:24.994Z,15.84
2022-08-28T06:40:53.353Z,15.95
2022-08-28T06:43:22.417Z,16.06
2022-08-28T06:45:51.180Z,15.93
2022-08-28T06:48:18.957Z,16.09
2022-08-28T06:50:48.893Z,16.15
2022-08-28T06:53:17.918Z,16.05
2022-08-28T06:55:43.965Z,16.07
2022-08-28T06:58:11.958Z,15.87
2022-08-28T07:00:39.648Z,15.94
2022-08-28T07:03:05.717Z,16.15
2022-08-28T07:05:33.286Z,15.84
2022-08-28T07:07:59.393Z,16.04
2022-08-28T07:10:28.678Z,16.23
2022-08-28T07:12:54.632Z,16.16
2022-08-28T07:15:20.773Z,15.80
2022-08-28T07:17:46.707Z,15.86
2022-08-28T07:20:12.842Z,16.11
2022-08-28T07:22:40.276Z,16.07
2022-08-28T07:25:08.397Z,15.97
2022-08-28T07:27:34.260Z,16.08
2022-08-28T07:30:01.289Z,16.40
2022-08-28T07:32:28.201Z,16.29
2022-08-28T07:34:56.372Z,16.45
2022-08-28T07:37:22.173Z,16.58
2022-08-28T07:39:48.906Z,16.65
2022-08-28T07:42:35.778Z,16.65
2022-08-28T07:45:02.128Z,16.67
2022-08-28T07:47:31.261Z,16.69
2022-08-28T07:49:59.935Z,16.62
2022-08-28T07:52:27.260Z,16.77
2022-08-28T07:54:54.132Z,16.59
2022-08-28T07:57:20.560Z,16.66
2022-08-28T07:59:48.851Z,16.57
2022-08-28T08:02:15.714Z,16.67
2022-08-28T08:04:42.238Z,16.65
2022-08-28T08:07:08.966Z,16.77
2022-08-28T08:09:42.975Z,16.63
2022-08-28T08:12:11.490Z,16.47
2022-08-28T08:14:38.713Z,16.63
2022-08-28T08:17:05.215Z,16.74
2022-08-28T08:19:33.909Z,16.77
2022-08-28T08:22:00.528Z,16.99
2022-08-28T08:24:27.766Z,17.16
2022-08-28T08:26:59.927Z,17.23
2022-08-28T08:29:32.462Z,17.19
2022-08-28T08:32:04.578Z,17.12
2022-08-28T08:34:32.295Z,17.05
2022-08-28T08:36:58.140Z,17.15
2022-08-28T08:39:24.045Z,16.98
2022-08-28T08:41:54.744Z,17.00
2022-08-28T08:44:35.966Z,17.28
2022-08-28T08:47:14.545Z,17.12
2022-08-28T08:49:55.087Z,17.09
2022-08-28T08:52:44.194Z,17.26
2022-08-28T08:55:22.603Z,17.45
2022-08-28T08:58:13.221Z,17.34
2022-08-28T09:00:51.540Z,17.36
2022-08-28T09:03:25.581Z,17.59
2022-08-28T09:05:57.441Z,17.47
2022-08-28T09:08:34.408Z,17.73
2022-08-28T09:11:06.328Z,17.73
2022-08-28T09:14:04.354Z,17.85
2022-08-28T09:16:34.860Z,18.06
2022-08-28T09:19:01.001Z,18.08
2022-08-28T09:21:31.167Z,18.06
2022-08-28T09:24:05.533Z,18.01
2022-08-28T09:26:32.198Z,18.08
2022-08-28T09:29:06.292Z,18.05
2022-08-28T09:31:41.148Z,18.07
2022-08-28T09:34:23.477Z,18.23
2022-08-28T09:36:50.613Z,18.30
2022-08-28T09:39:26.732Z,18.42
2022-08-28T09:42:32.832Z,18.24
2022-08-28T09:45:20.412Z,18.40
2022-08-28T09:47:53.227Z,18.52
2022-08-28T09:50:31.339Z,18.47
2022-08-28T09:53:19.792Z,18.72
2022-08-28T09:56:04.036Z,18.83
2022-08-28T09:58:49.040Z,18.80
2022-08-28T10:01:22.557Z,18.90
2022-08-28T10:03:55.357Z,19.04
2022-08-28T10:06:27.538Z,19.27
2022-08-28T10:09:25.725Z,19.46
2022-08-28T10:12:19.396Z,19.73
2022-08-28T10:15:02.435Z,19.62
2022-08-28T10:17:28.584Z,19.52
2022-08-28T10:20:14.846Z,19.82
2022-08-28T10:23:29.801Z,19.88
2022-08-28T10:26:40.527Z,19.91
2022-08-28T10:29:24.484Z,20.44
2022-08-28T10:32:02.401Z,20.53
2022-08-28T10:35:08.097Z,20.53
2022-08-28T10:37:52.184Z,20.68
2022-08-28T10:40:25.692Z,20.62
2022-08-28T10:43:14.223Z,20.99
2022-08-28T10:45:40.996Z,20.93
2022-08-28T10:48:16.834Z,21.00
2022-08-28T10:50:54.181Z,20.90
2022-08-28T10:53:27.235Z,21.40
2022-08-28T10:56:02.789Z,21.50
2022-08-28T10:58:31.358Z,21.98
2022-08-28T11:01:06.024Z,21.67
2022-08-28T11:03:45.856Z,21.55
2022-08-28T11:06:33.286Z,21.78
2022-08-28T11:09:22.604Z,21.94
2022-08-28T11:11:50.347Z,21.93
2022-08-28T11:14:48.407Z,22.20
2022-08-28T11:17:24.592Z,22.47
2022-08-28T11:19:56.152Z,22.61
2022-08-28T11:22:41.031Z,22.95
2022-08-28T11:25:26.591Z,23.23
2022-08-28T11:28:21.765Z,23.30
2022-08-28T11:31:08.601Z,24.23
2022-08-28T11:33:54.799Z,24.89
2022-08-28T11:36:20.836Z,25.34
2022-08-28T11:38:56.822Z,25.30
2022-08-28T11:41:28.590Z,25.52
2022-08-28T11:44:03.680Z,25.57
2022-08-28T11:46:34.560Z,25.67
2022-08-28T11:49:26.965Z,25.84
2022-08-28T11:52:20.003Z,25.98
2022-08-28T11:54:59.424Z,26.00
2022-08-28T11:57:46.231Z,25.79
2022-08-28T12:00:45.628Z,26.01
2022-08-28T12:03:53.502Z,25.31
2022-08-28T12:06:46.850Z,25.21
2022-08-28T12:09:38.925Z,24.83
2022-08-28T12:12:37.009Z,25.56
2022-08-28T12:15:08.074Z,26.51
2022-08-28T12:17:44.231Z,26.60
2022-08-28T12:20:20.557Z,26.92
2022-08-28T12:22:53.652Z,27.07
2022-08-28T12:25:41.474Z,26.28
2022-08-28T12:28:21.863Z,26.63
2022-08-28T12:30:58.757Z,26.20
2022-08-28T12:33:31.297Z,26.20
2022-08-28T12:36:05.515Z,26.50
2022-08-28T12:38:33.931Z,26.63
2022-08-28T12:41:02.039Z,27.07
2022-08-28T12:43:30.682Z,26.92
2022-08-28T12:45:58.840Z,27.30
2022-08-28T12:48:31.862Z,27.54
2022-08-28T12:51:00.879Z,27.25
2022-08-28T12:53:42.034Z,26.72
2022-08-28T12:56:14.933Z,26.32
2022-08-28T12:58:42.316Z,26.67
2022-08-28T13:01:14.364Z,26.68
2022-08-28T13:03:59.650Z,25.93
2022-08-28T13:06:27.016Z,26.17
2022-08-28T13:09:00.820Z,26.18
2022-08-28T13:11:39.045Z,26.30
2022-08-28T13:14:07.865Z,26.33
2022-08-28T13:16:42.943Z,26.40
2022-08-28T13:19:12.222Z,26.57
2022-08-28T13:21:47.002Z,26.63
2022-08-28T13:24:22.245Z,26.68
2022-08-28T13:26:58.511Z,26.15
2022-08-28T13:29:24.545Z,26.19
2022-08-28T13:32:00.155Z,26.28
2022-08-28T13:34:31.454Z,26.22
2022-08-28T13:36:59.171Z,26.45
2022-08-28T13:39:27.562Z,26.21
2022-08-28T13:41:57.635Z,26.39
2022-08-28T13:44:36.040Z,26.58
2022-08-28T13:47:06.165Z,26.48
2022-08-28T13:49:33.379Z,26.45
2022-08-28T13:52:01.685Z,26.33
2022-08-28T13:54:29.463Z,26.04
2022-08-28T13:56:57.570Z,25.97
2022-08-28T13:59:24.058Z,26.11
2022-08-28T14:02:12.690Z,26.15
2022-08-28T14:04:39.423Z,26.28
2022-08-28T14:07:07.233Z,26.42
2022-08-28T14:09:34.631Z,26.54
2022-08-28T14:12:01.838Z,26.60
2022-08-28T14:14:28.180Z,26.30
2022-08-28T14:16:55.243Z,26.41
2022-08-28T14:19:21.659Z,26.57
2022-08-28T14:21:47.811Z,26.63
2022-08-28T14:24:13.961Z,26.60
2022-08-28T14:26:39.952Z,26.51
2022-08-28T14:29:08.961Z,26.56
2022-08-28T14:31:36.107Z,26.48
2022-08-28T14:34:04.133Z,26.37
2022-08-28T14:36:31.231Z,26.45
2022-08-28T14:39:04.020Z,26.38
2022-08-28T14:41:32.024Z,26.60
2022-08-28T14:43:58.221Z,26.22
2022-08-28T14:46:27.838Z,26.19
2022-08-28T14:48:59.536Z,26.21
2022-08-28T14:51:26.241Z,25.88
2022-08-28T14:53:52.581Z,25.74
2022-08-28T14:56:20.520Z,25.75
2022-08-28T14:58:46.513Z,25.74
2022-08-28T15:01:22.707Z,25.86
2022-08-28T15:03:48.948Z,25.62
2022-08-28T15:06:15.487Z,25.33
2022-08-28T15:08:41.494Z,25.98
2022-08-28T15:11:10.301Z,26.00
2022-08-28T15:13:37.198Z,25.82
2022-08-28T15:16:14.638Z,26.05
2022-08-28T15:18:43.666Z,25.81
2022-08-28T15:21:20.791Z,25.86
2022-08-28T15:23:51.435Z,26.16
2022-08-28T15:26:18.766Z,26.28
2022-08-28T15:28:45.283Z,26.48
2022-08-28T15:31:11.611Z,26.28
2022-08-28T15:33:40.127Z,26.05
2022-08-28T15:36:08.937Z,26.17
2022-08-28T15:38:53.325Z,26.09
2022-08-28T15:41:24.491Z,26.00
2022-08-28T15:43:53.019Z,26.01
2022-08-28T15:46:19.340Z,25.93
2022-08-28T15:48:47.527Z,25.76
2022-08-28T15:51:14.830Z,25.42
2022-08-28T15:53:41.444Z,25.40
2022-08-28T15:56:08.364Z,25.47
2022-08-28T15:58:35.370Z,25.76
2022-08-28T16:01:03.240Z,25.94
2022-08-28T16:03:29.136Z,25.77
2022-08-28T16:05:55.302Z,25.83
2022-08-28T16:08:21.453Z,25.72
2022-08-28T16:10:49.126Z,25.61
2022-08-28T16:13:16.630Z,25.53
2022-08-28T16:15:43.787Z,25.50
2022-08-28T16:18:12.158Z,25.42
2022-08-28T16:20:42.615Z,25.16
2022-08-28T16:23:10.120Z,25.29
2022-08-28T16:25:36.136Z,25.60
2022-08-28T16:28:03.172Z,25.48
2022-08-28T16:30:29.149Z,25.47
2022-08-28T16:32:55.083Z,25.46
2022-08-28T16:35:21.629Z,25.46
2022-08-28T16:37:47.711Z,25.07
2022-08-28T16:40:14.860Z,24.84
2022-08-28T16:42:41.306Z,24.99
2022-08-28T16:45:09.121Z,24.63
2022-08-28T16:47:37.230Z,24.53
2022-08-28T16:50:12.263Z,24.68
2022-08-28T16:52:38.303Z,24.71
2022-08-28T16:55:06.767Z,24.39
2022-08-28T16:57:33.426Z,24.61
2022-08-28T16:59:59.731Z,24.64
2022-08-28T17:02:26.876Z,24.83
2022-08-28T17:04:55.252Z,24.86
2022-08-28T17:07:21.484Z,24.50
2022-08-28T17:09:47.526Z,24.10
2022-08-28T17:12:13.741Z,23.99
2022-08-28T17:14:41.233Z,23.86
2022-08-28T17:17:07.156Z,23.77
2022-08-28T17:19:33.132Z,23.47
2022-08-28T17:22:17.748Z,23.14
2022-08-28T17:24:47.067Z,22.83
2022-08-28T17:27:16.740Z,22.60
2022-08-28T17:29:48.594Z,22.37
2022-08-28T17:32:14.519Z,22.23
2022-08-28T17:34:40.589Z,22.11
2022-08-28T17:37:06.565Z,22.16
2022-08-28T17:39:32.481Z,22.00
2022-08-28T17:41:59.227Z,21.85
2022-08-28T17:44:25.338Z,21.80
2022-08-28T17:46:51.236Z,21.78
2022-08-28T17:49:17.709Z,21.57
2022-08-28T17:51:44.572Z,21.56
2022-08-28T17:54:20.663Z,21.37
2022-08-28T17:56:47.176Z,21.33
2022-08-28T17:59:13.893Z,21.33
2022-08-28T18:01:41.237Z,21.18
2022-08-28T18:04:08.119Z,21.29
2022-08-28T18:06:34.397Z,21.08
2022-08-28T18:09:00.760Z,21.03
2022-08-28T18:11:27.332Z,20.95
2022-08-28T18:13:53.484Z,21.03
2022-08-28T18:16:19.508Z,20.81
2022-08-28T18:18:45.394Z,20.76
2022-08-28T18:21:12.571Z,20.81
2022-08-28T18:23:39.704Z,20.87
2022-08-28T18:26:07.359Z,20.63
2022-08-28T18:28:33.354Z,20.51
2022-08-28T18:31:00.510Z,20.49
2022-08-28T18:33:26.989Z,20.52
2022-08-28T18:35:53.513Z,20.35
2022-08-28T18:38:22.180Z,20.10
2022-08-28T18:40:48.589Z,20.00
2022-08-28T18:43:16.526Z,20.07
2022-08-28T18:45:42.419Z,20.03
2022-08-28T18:48:08.383Z,19.91
2022-08-28T18:50:34.854Z,19.94
2022-08-28T18:53:01.513Z,19.83
2022-08-28T18:55:30.350Z,19.84
2022-08-28T18:57:59.567Z,19.67
2022-08-28T19:00:26.802Z,19.69
2022-08-28T19:02:53.655Z,19.60
2022-08-28T19:05:20.610Z,19.54
2022-08-28T19:07:47.228Z,19.45
2022-08-28T19:10:32.007Z,19.41
2022-08-28T19:13:00.240Z,19.37
2022-08-28T19:15:26.193Z,19.25
2022-08-28T19:17:52.061Z,19.10
2022-08-28T19:20:19.713Z,19.13
2022-08-28T19:22:47.929Z,19.14
2022-08-28T19:25:22.386Z,19.18
2022-08-28T19:27:54.700Z,19.19
2022-08-28T19:30:25.608Z,19.25
2022-08-28T19:32:51.575Z,19.26
2022-08-28T19:35:17.716Z,19.15
2022-08-28T19:37:44.223Z,19.11
2022-08-28T19:40:12.231Z,19.09
2022-08-28T19:42:38.341Z,18.97
2022-08-28T19:45:09.949Z,18.86
2022-08-28T19:47:35.859Z,18.92
2022-08-28T19:50:03.841Z,18.87
2022-08-28T19:52:29.879Z,18.83
2022-08-28T19:54:55.811Z,18.82
2022-08-28T19:57:21.699Z,18.86
2022-08-28T19:59:48.393Z,18.69
2022-08-28T20:02:14.347Z,18.90
2022-08-28T20:04:40.320Z,18.77
2022-08-28T20:07:06.224Z,18.81
2022-08-28T20:09:32.329Z,18.86
2022-08-28T20:12:00.044Z,18.79
2022-08-28T20:14:26.305Z,18.85
2022-08-28T20:16:53.709Z,18.73
2022-08-28T20:19:20.310Z,18.60
2022-08-28T20:21:49.254Z,18.44
2022-08-28T20:24:22.907Z,18.34
2022-08-28T20:26:49.705Z,18.31
2022-08-28T20:29:15.998Z,18.38
2022-08-28T20:31:44.621Z,18.33
2022-08-28T20:34:11.574Z,18.38
2022-08-28T20:36:37.993Z,18.19
2022-08-28T20:39:06.503Z,18.19
2022-08-28T20:41:33.564Z,18.18
2022-08-28T20:44:04.160Z,18.25
2022-08-28T20:46:31.507Z,17.92
2022-08-28T20:48:59.031Z,17.96
2022-08-28T20:51:45.120Z,17.96
2022-08-28T20:54:11.310Z,17.86
2022-08-28T20:56:37.391Z,17.84
2022-08-28T20:59:03.661Z,17.79
2022-08-28T21:01:29.624Z,17.78
2022-08-28T21:03:55.536Z,17.78
2022-08-28T21:06:21.407Z,17.68
2022-08-28T21:08:49.461Z,17.57
2022-08-28T21:11:18.598Z,17.72
2022-08-28T21:13:44.493Z,17.71
2022-08-28T21:16:10.412Z,17.67
2022-08-28T21:18:36.366Z,17.54
2022-08-28T21:21:05.920Z,17.49
2022-08-28T21:23:32.401Z,17.48
2022-08-28T21:25:58.905Z,17.44
2022-08-28T21:28:25.273Z,17.41
2022-08-28T21:30:53.271Z,17.61
2022-08-28T21:33:20.048Z,17.60
2022-08-28T21:35:45.989Z,17.62
2022-08-28T21:38:11.910Z,17.59
2022-08-28T21:40:39.952Z,17.24
2022-08-28T21:43:06.247Z,17.28
2022-08-28T21:45:32.792Z,17.48
2022-08-28T21:47:58.863Z,17.26
2022-08-28T21:50:28.377Z,17.28
2022-08-28T21:52:55.449Z,17.08
2022-08-28T21:55:22.110Z,17.02
2022-08-28T21:57:48.302Z,16.91
2022-08-28T22:00:19.839Z,17.12
2022-08-28T22:02:46.745Z,16.78
2022-08-28T22:05:13.156Z,16.69
2022-08-28T22:07:39.705Z,16.91
2022-08-28T22:10:08.068Z,16.94
2022-08-28T22:12:34.057Z,16.75
2022-08-28T22:14:59.959Z,16.70
2022-08-28T22:17:25.912Z,16.67
2022-08-28T22:19:52.069Z,16.62
2022-08-28T22:22:36.788Z,16.58
2022-08-28T22:25:03.875Z,16.52
2022-08-28T22:27:31.199Z,16.57
2022-08-28T22:29:57.642Z,16.43
2022-08-28T22:32:26.012Z,16.43
2022-08-28T22:34:53.432Z,16.24
2022-08-28T22:37:19.482Z,16.37
2022-08-28T22:39:45.318Z,16.24
2022-08-28T22:42:11.143Z,16.38
2022-08-28T22:44:37.743Z,16.00
2022-08-28T22:47:04.519Z,16.05
2022-08-28T22:49:30.417Z,15.91
2022-08-28T22:51:56.646Z,15.74
2022-08-28T22:54:22.548Z,15.80
2022-08-28T22:56:48.463Z,15.87
2022-08-28T22:59:14.492Z,15.94
2022-08-28T23:01:42.046Z,15.93
2022-08-28T23:04:09.611Z,15.84
2022-08-28T23:06:38.958Z,15.96
2022-08-28T23:09:06.630Z,15.76
2022-08-28T23:11:34.455Z,15.77
2022-08-28T23:14:00.692Z,15.77
2022-08-28T23:16:26.698Z,15.65
2022-08-28T23:19:08.866Z,15.63
2022-08-28T23:21:36.020Z,15.42
2022-08-28T23:24:06.845Z,15.03
2022-08-28T23:26:33.207Z,15.15
2022-08-28T23:28:59.365Z,15.04
2022-08-28T23:31:25.474Z,15.10
2022-08-28T23:33:51.433Z,15.00
2022-08-28T23:36:18.161Z,15.16
2022-08-28T23:38:44.397Z,15.09
2022-08-28T23:41:11.303Z,15.27
2022-08-28T23:43:37.540Z,15.26
2022-08-28T23:46:04.289Z,15.21
2022-08-28T23:48:31.396Z,15.30
2022-08-28T23:50:58.296Z,15.33
2022-08-28T23:53:25.026Z,15.25
2022-08-28T23:55:50.859Z,15.10
2022-08-28T23:58:17.648Z,15.07
